Time;durP1;ratioP1;P1;durP2;ratioP2;P2;SDS_P1;SDS_P2;PMS_P1;PMS_P2;Temp;Humidity;BMP_temperature;BMP_pressure;BME280_temperature;BME280_humidity;BME280_pressure;Samples;Min_cycle;Max_cycle;Signal;HPM_P1;HPM_P2
2022/08/08 00:00:23;;;;;;;4.67;2.20;;;;;;;18.77;100.00;100271.56;1668315;85;21057;-59
2022/08/08 00:03:29;;;;;;;3.50;2.10;;;;;;;18.78;100.00;100271.84;1650183;85;20938;-57
2022/08/08 00:06:24;;;;;;;6.50;2.83;;;;;;;18.76;100.00;100268.13;1667361;85;21432;-58
2022/08/08 00:08:54;;;;;;;3.43;2.13;;;;;;;18.76;100.00;100269.45;1650461;86;21478;-65
2022/08/08 00:11:41;;;;;;;3.45;1.98;;;;;;;18.83;100.00;100264.83;1667221;85;21672;-57
2022/08/08 00:14:36;;;;;;;5.80;2.60;;;;;;;18.89;100.00;100272.30;1650463;86;21094;-55
2022/08/08 00:17:14;;;;;;;5.03;3.20;;;;;;;18.93;100.00;100272.11;1666866;85;21081;-64
2022/08/08 00:20:05;;;;;;;4.57;2.90;;;;;;;18.88;100.00;100283.39;1668095;85;20983;-55
2022/08/08 00:22:44;;;;;;;6.00;2.80;;;;;;;18.79;100.00;100295.39;1667340;85;21435;-64
2022/08/08 00:25:28;;;;;;;5.97;2.47;;;;;;;18.75;100.00;100290.79;1667355;85;21223;-56
2022/08/08 00:27:58;;;;;;;4.67;2.60;;;;;;;18.70;100.00;100292.30;1666731;85;21065;-64
2022/08/08 00:30:28;;;;;;;8.37;2.53;;;;;;;18.67;100.00;100291.41;1667431;85;20998;-55
2022/08/08 00:32:59;;;;;;;3.83;2.07;;;;;;;18.68;100.00;100293.04;1667581;85;20915;-55
2022/08/08 00:35:49;;;;;;;5.85;3.08;;;;;;;18.78;100.00;100290.33;1667399;85;21037;-64
2022/08/08 00:38:47;;;;;;;3.33;2.20;;;;;;;18.90;100.00;100299.82;1633575;85;21124;-55
2022/08/08 00:41:38;;;;;;;5.23;2.00;;;;;;;19.04;100.00;100284.45;1643054;85;21132;-57
2022/08/08 00:44:28;;;;;;;7.00;2.20;;;;;;;19.06;100.00;100285.56;1667550;85;21042;-56
2022/08/08 00:47:19;;;;;;;4.43;2.00;;;;;;;19.09;100.00;100278.45;1667702;85;21074;-55
2022/08/08 00:50:11;;;;;;;6.22;2.10;;;;;;;19.16;100.00;100281.75;1648739;85;23991;-65
2022/08/08 00:53:12;;;;;;;6.40;2.43;;;;;;;19.14;100.00;100285.16;1665423;85;21928;-55
2022/08/08 00:56:29;;;;;;;5.83;2.15;;;;;;;19.11;100.00;100275.86;1655915;85;21042;-55
2022/08/08 00:59:50;;;;;;;4.67;2.50;;;;;;;19.05;100.00;100279.45;1667253;85;21582;-56
2022/08/08 01:02:36;;;;;;;5.77;2.73;;;;;;;19.01;100.00;100285.45;1667287;85;20967;-56
2022/08/08 01:05:24;;;;;;;4.03;2.67;;;;;;;18.88;100.00;100284.71;1668466;85;21066;-55
2022/08/08 01:08:29;;;;;;;7.10;2.43;;;;;;;18.71;100.00;100281.22;1634265;86;21455;-57
2022/08/08 01:11:47;;;;;;;4.03;2.53;;;;;;;18.67;100.00;100280.05;1699766;84;20987;-64
2022/08/08 01:14:38;;;;;;;4.80;2.43;;;;;;;18.69;100.00;100276.67;1699872;84;21441;-63
2022/08/08 01:17:26;;;;;;;4.17;2.70;;;;;;;18.65;100.00;100286.11;1623544;87;21526;-56
2022/08/08 01:20:38;;;;;;;5.03;2.60;;;;;;;18.55;100.00;100293.30;1684965;84;21560;-58
2022/08/08 01:23:47;;;;;;;4.93;2.90;;;;;;;18.42;100.00;100300.18;1699521;83;21205;-57
2022/08/08 01:26:26;;;;;;;6.00;3.30;;;;;;;18.21;100.00;100293.15;1699640;83;21019;-55
2022/08/08 01:29:36;;;;;;;6.73;3.53;;;;;;;18.11;100.00;100300.07;1698495;84;20975;-56
2022/08/08 01:32:39;;;;;;;5.45;2.67;;;;;;;17.99;100.00;100306.65;1699065;84;21890;-59
2022/08/08 01:35:30;;;;;;;6.53;3.33;;;;;;;17.92;100.00;100302.03;1699120;84;21433;-64
2022/08/08 01:38:37;;;;;;;6.55;3.80;;;;;;;17.85;100.00;100306.62;1699631;83;21347;-56
2022/08/08 01:41:22;;;;;;;5.17;3.37;;;;;;;17.75;100.00;100304.54;1699312;84;22001;-59
2022/08/08 01:44:15;;;;;;;6.53;3.20;;;;;;;17.69;100.00;100303.61;1699581;84;21446;-57
2022/08/08 01:46:50;;;;;;;4.50;3.10;;;;;;;17.55;100.00;100310.12;1699956;84;21335;-59
2022/08/08 01:50:13;;;;;;;6.03;3.40;;;;;;;17.52;100.00;100310.56;1699990;83;20940;-56
2022/08/08 01:53:22;;;;;;;5.97;3.45;;;;;;;17.43;100.00;100309.30;1700321;84;21164;-57
2022/08/08 01:56:04;;;;;;;4.80;3.03;;;;;;;17.37;100.00;100310.20;1700303;84;20936;-56
2022/08/08 01:59:19;;;;;;;5.17;3.40;;;;;;;17.37;100.00;100314.15;1699265;84;21027;-67
2022/08/08 02:02:16;;;;;;;18.00;3.40;;;;;;;17.33;100.00;100317.75;1699759;84;21016;-65
2022/08/08 02:05:13;;;;;;;7.97;3.10;;;;;;;17.34;100.00;100322.50;1690974;83;21124;-56
2022/08/08 02:08:11;;;;;;;5.30;3.20;;;;;;;17.39;100.00;100316.06;1676508;85;21542;-57
2022/08/08 02:11:17;;;;;;;6.03;3.50;;;;;;;17.24;100.00;100317.28;1675758;85;20902;-66
2022/08/08 02:13:58;;;;;;;5.67;2.83;;;;;;;17.18;100.00;100323.95;1676812;85;21009;-56
2022/08/08 02:17:03;;;;;;;6.57;3.27;;;;;;;17.23;100.00;100321.44;1676270;84;21267;-56
2022/08/08 02:19:48;;;;;;;5.43;3.87;;;;;;;17.25;100.00;100328.61;1676048;85;21057;-55
2022/08/08 02:22:54;;;;;;;9.20;3.47;;;;;;;17.28;100.00;100333.95;1676706;85;21151;-55
2022/08/08 02:25:38;;;;;;;6.20;3.63;;;;;;;17.28;100.00;100333.95;1676245;85;20961;-57
2022/08/08 02:28:21;;;;;;;5.60;3.50;;;;;;;17.27;100.00;100335.77;1676284;85;20990;-65
2022/08/08 02:31:02;;;;;;;7.33;3.30;;;;;;;17.35;100.00;100339.42;1649221;85;21088;-56
2022/08/08 02:33:54;;;;;;;6.23;3.70;;;;;;;17.38;100.00;100336.31;1676152;85;20985;-66
2022/08/08 02:36:52;;;;;;;4.90;3.20;;;;;;;17.46;100.00;100337.81;1676190;85;21173;-55
2022/08/08 02:39:41;;;;;;;4.53;3.20;;;;;;;17.51;100.00;100340.59;1675392;85;20954;-57
2022/08/08 02:42:35;;;;;;;6.40;3.60;;;;;;;17.61;100.00;100342.14;1672093;84;20990;-56
2022/08/08 02:45:12;;;;;;;7.03;3.73;;;;;;;17.66;100.00;100348.87;1675796;85;21935;-56
2022/08/08 02:48:10;;;;;;;5.20;3.40;;;;;;;17.75;100.00;100354.11;1633683;85;21054;-56
2022/08/08 02:51:25;;;;;;;5.20;3.30;;;;;;;17.82;100.00;100354.02;1676474;85;21120;-55
2022/08/08 02:54:27;;;;;;;5.20;3.63;;;;;;;17.91;100.00;100355.79;1674662;85;21984;-56
2022/08/08 02:57:27;;;;;;;7.80;3.33;;;;;;;18.04;100.00;100358.22;1675872;85;20942;-61
2022/08/08 03:00:24;;;;;;;6.57;3.67;;;;;;;18.12;100.00;100358.39;1672078;84;20954;-56
2022/08/08 03:03:45;;;;;;;6.40;3.83;;;;;;;18.20;100.00;100358.03;1676432;85;21900;-56
2022/08/08 03:06:41;;;;;;;5.35;3.62;;;;;;;18.26;100.00;100361.57;1698998;84;21239;-56
2022/08/08 03:09:49;;;;;;;6.63;4.07;;;;;;;18.47;100.00;100360.46;1699164;84;20991;-59
2022/08/08 03:12:42;;;;;;;10.60;3.37;;;;;;;18.85;100.00;100366.26;1662275;85;21484;-58
2022/08/08 03:15:48;;;;;;;4.20;3.15;;;;;;;19.39;100.00;100362.74;1695420;84;21034;-56
2022/08/08 03:18:33;;;;;;;4.90;3.20;;;;;;;19.65;100.00;100361.36;1699722;84;21857;-56
2022/08/08 03:21:00;;;;;;;6.17;3.30;;;;;;;19.81;100.00;100363.72;1698420;84;21235;-56
2022/08/08 03:23:29;;;;;;;5.90;2.77;;;;;;;20.07;100.00;100363.57;1699362;84;20952;-63
2022/08/08 03:25:57;;;;;;;10.10;3.97;;;;;;;20.47;100.00;100363.33;1699897;83;21598;-57
2022/08/08 03:28:31;;;;;;;6.40;3.30;;;;;;;21.04;100.00;100367.45;1703362;83;21485;-56
2022/08/08 03:30:59;;;;;;;6.67;3.90;;;;;;;21.71;100.00;100373.67;1699859;83;20999;-56
2022/08/08 03:33:26;;;;;;;10.93;4.53;;;;;;;22.37;100.00;100377.30;1699008;82;21088;-64
2022/08/08 03:35:55;;;;;;;7.60;4.40;;;;;;;22.89;100.00;100379.10;1700275;83;21391;-56
2022/08/08 03:38:23;;;;;;;6.43;3.80;;;;;;;23.54;100.00;100372.30;1700267;83;20900;-56
2022/08/08 03:40:53;;;;;;;6.90;3.57;;;;;;;24.50;100.00;100370.57;1700246;84;20990;-57
2022/08/08 03:43:22;;;;;;;7.63;3.90;;;;;;;25.57;100.00;100365.16;1699306;84;21014;-65
2022/08/08 03:45:57;;;;;;;7.63;3.73;;;;;;;26.64;100.00;100373.42;1699734;83;21301;-59
2022/08/08 03:48:24;;;;;;;5.10;3.37;;;;;;;27.51;100.00;100376.74;1700034;83;21007;-57
2022/08/08 03:50:51;;;;;;;4.58;3.62;;;;;;;28.30;97.21;100373.45;1700145;83;21062;-56
2022/08/08 03:53:20;;;;;;;12.73;3.98;;;;;;;29.09;87.88;100366.98;1699271;84;21054;-58
2022/08/08 03:55:49;;;;;;;5.12;3.55;;;;;;;30.71;66.48;100368.38;1702987;83;21070;-57
2022/08/08 03:58:22;;;;;;;4.03;3.15;;;;;;;30.71;66.48;100368.38;1699626;84;21233;-57
2022/08/08 04:00:55;;;;;;;6.00;3.02;;;;;;;31.40;61.14;100367.05;1699431;83;21023;-63
2022/08/08 04:03:23;;;;;;;6.03;2.62;;;;;;;32.16;56.01;100370.40;1699002;83;21011;-64
2022/08/08 04:05:50;;;;;;;4.72;2.92;;;;;;;32.90;50.73;100361.42;1699778;83;22535;-57
2022/08/08 04:08:22;;;;;;;5.05;3.20;;;;;;;33.42;48.02;100364.45;1699559;83;21023;-57
2022/08/08 04:10:50;;;;;;;4.37;2.83;;;;;;;33.73;46.77;100371.86;1699281;84;21265;-65
2022/08/08 04:13:20;;;;;;;6.28;3.10;;;;;;;34.07;44.72;100367.40;1698886;83;21480;-60
2022/08/08 04:15:48;;;;;;;5.42;2.60;;;;;;;34.55;43.16;100368.50;1699654;83;21172;-57
2022/08/08 04:18:16;;;;;;;7.35;2.77;;;;;;;35.03;42.04;100371.41;1699048;83;21536;-58
2022/08/08 04:20:43;;;;;;;5.78;2.67;;;;;;;35.58;40.02;100376.58;1699344;84;21008;-58
2022/08/08 04:23:10;;;;;;;5.40;2.80;;;;;;;35.90;38.00;100373.85;1698989;83;21602;-57
2022/08/08 04:25:38;;;;;;;6.20;2.87;;;;;;;36.03;37.02;100380.22;1699352;84;20916;-56
2022/08/08 04:28:06;;;;;;;4.65;2.70;;;;;;;36.05;35.54;100381.22;1699641;83;20900;-57
2022/08/08 04:30:33;;;;;;;7.22;3.10;;;;;;;36.08;34.29;100373.73;1698994;84;21071;-61
2022/08/08 04:33:00;;;;;;;5.10;2.55;;;;;;;36.03;32.52;100375.38;1699475;83;21137;-57
2022/08/08 04:35:29;;;;;;;4.65;2.58;;;;;;;35.71;33.76;100372.63;1699224;83;21568;-59
2022/08/08 04:37:57;;;;;;;5.40;2.55;;;;;;;35.80;33.41;100372.45;1699535;83;21082;-56
2022/08/08 04:40:30;;;;;;;3.92;2.35;;;;;;;35.78;32.78;100381.52;1699153;83;21051;-57
2022/08/08 04:42:57;;;;;;;5.58;2.25;;;;;;;35.53;33.48;100376.24;1699793;83;20940;-56
2022/08/08 04:45:26;;;;;;;3.83;2.50;;;;;;;35.47;32.35;100376.84;1698955;83;21121;-57
2022/08/08 04:47:55;;;;;;;3.90;2.55;;;;;;;35.24;32.91;100375.28;1699861;83;21214;-57
2022/08/08 04:50:23;;;;;;;4.65;3.22;;;;;;;35.15;34.18;100374.62;1699003;83;21496;-57
2022/08/08 04:52:50;;;;;;;5.35;3.30;;;;;;;35.33;33.86;100383.45;1699635;83;21031;-56
2022/08/08 04:55:17;;;;;;;5.15;2.87;;;;;;;35.55;33.76;100381.34;1698891;84;21071;-58
2022/08/08 04:57:45;;;;;;;5.25;2.40;;;;;;;35.72;32.56;100384.27;1699608;83;21055;-56
2022/08/08 05:00:13;;;;;;;5.45;2.95;;;;;;;35.65;32.71;100389.50;1699001;84;21266;-66
2022/08/08 05:02:41;;;;;;;6.97;3.08;;;;;;;35.64;32.81;100388.72;1699009;83;20998;-57
2022/08/08 05:05:08;;;;;;;4.78;2.60;;;;;;;35.64;32.96;100389.30;1699281;83;21602;-66
2022/08/08 05:07:37;;;;;;;4.28;2.90;;;;;;;35.71;32.70;100391.61;1698878;84;21157;-57
2022/08/08 05:10:06;;;;;;;3.98;2.45;;;;;;;35.83;32.58;100397.52;1699602;84;21467;-58
2022/08/08 05:12:34;;;;;;;4.30;2.87;;;;;;;35.86;32.47;100400.11;1702966;83;21241;-58
2022/08/08 05:15:01;;;;;;;3.70;2.80;;;;;;;35.99;32.66;100401.61;1699481;83;21035;-57
2022/08/08 05:17:28;;;;;;;5.85;2.75;;;;;;;36.08;32.13;100398.73;1698648;84;21062;-61
2022/08/08 05:19:56;;;;;;;4.15;2.90;;;;;;;36.18;31.96;100400.88;1699507;84;21114;-57
2022/08/08 05:22:26;;;;;;;6.05;3.00;;;;;;;36.48;31.99;100397.13;1699522;83;20931;-65
2022/08/08 05:24:54;;;;;;;6.00;2.80;;;;;;;36.57;30.86;100401.02;1699701;84;21474;-58
2022/08/08 05:27:22;;;;;;;5.50;3.15;;;;;;;36.48;30.93;100398.48;1678948;84;20935;-57
2022/08/08 05:29:50;;;;;;;4.47;3.47;;;;;;;36.44;31.16;100403.02;1699623;84;21990;-58
2022/08/08 05:32:17;;;;;;;4.35;2.70;;;;;;;36.60;30.38;100401.67;1699189;83;20951;-64
2022/08/08 05:34:49;;;;;;;6.53;3.25;;;;;;;36.76;30.19;100401.81;1699526;83;21273;-57
2022/08/08 05:37:26;;;;;;;5.55;3.40;;;;;;;36.91;29.87;100395.32;1702872;83;21784;-65
2022/08/08 05:39:54;;;;;;;4.08;3.15;;;;;;;36.96;29.06;100408.64;1699593;83;21103;-59
2022/08/08 05:42:40;;;;;;;4.50;3.45;;;;;;;36.93;28.98;100407.96;1699404;83;20995;-58
2022/08/08 05:45:09;;;;;;;4.62;3.42;;;;;;;36.82;28.76;100413.17;1699025;84;21532;-59
2022/08/08 05:47:37;;;;;;;6.78;3.62;;;;;;;36.68;29.39;100412.90;1699863;83;21763;-60
2022/08/08 05:50:06;;;;;;;6.00;3.25;;;;;;;36.66;29.65;100413.23;1699048;83;21126;-56
2022/08/08 05:52:34;;;;;;;5.62;3.70;;;;;;;36.89;29.47;100409.82;1702862;83;21034;-66
2022/08/08 05:55:05;;;;;;;5.35;3.75;;;;;;;37.31;29.66;100413.96;1699503;83;21490;-56
2022/08/08 05:57:36;;;;;;;4.60;4.12;;;;;;;37.57;28.39;100408.44;1699269;84;21034;-57
2022/08/08 06:00:07;;;;;;;4.33;3.77;;;;;;;37.26;27.86;100412.33;1698911;83;20955;-56
2022/08/08 06:03:09;;;;;;;4.62;3.60;;;;;;;37.11;28.60;100409.70;1699303;83;21116;-56
2022/08/08 06:05:59;;;;;;;4.97;3.55;;;;;;;36.83;28.82;100404.48;1698971;84;21058;-60
2022/08/08 06:08:37;;;;;;;7.83;4.33;;;;;;;36.62;29.09;100407.52;1699698;84;21078;-58
2022/08/08 06:11:06;;;;;;;7.65;3.47;;;;;;;36.60;28.82;100410.61;1699345;83;20935;-57
2022/08/08 06:13:34;;;;;;;4.92;3.52;;;;;;;36.64;29.31;100407.97;1698928;83;21300;-57
2022/08/08 06:16:02;;;;;;;4.95;3.65;;;;;;;36.67;29.11;100403.16;1699624;84;22378;-56
2022/08/08 06:18:47;;;;;;;5.53;3.67;;;;;;;36.95;29.06;100405.14;1699256;83;21146;-56
2022/08/08 06:21:15;;;;;;;5.28;3.50;;;;;;;37.47;29.08;100402.46;1699288;84;21525;-64
2022/08/08 06:23:42;;;;;;;5.33;3.50;;;;;;;37.84;28.01;100396.45;1679991;84;21086;-58
2022/08/08 06:26:10;;;;;;;7.97;4.08;;;;;;;37.78;27.14;100402.00;1699911;84;21007;-57
2022/08/08 06:29:05;;;;;;;4.53;3.65;;;;;;;37.63;27.76;100398.84;1699011;83;21105;-58
2022/08/08 06:31:36;;;;;;;5.20;3.77;;;;;;;37.71;27.79;100401.88;1699504;84;21027;-56
2022/08/08 06:34:17;;;;;;;6.62;3.85;;;;;;;37.58;28.80;100404.56;1699631;83;23802;-63
2022/08/08 06:36:45;;;;;;;7.12;4.30;;;;;;;37.62;28.78;100406.77;1699245;84;21001;-56
2022/08/08 06:39:14;;;;;;;7.22;4.25;;;;;;;37.93;28.41;100397.61;1699658;83;21005;-56
2022/08/08 06:42:03;;;;;;;6.40;3.80;;;;;;;38.11;28.18;100401.94;1699616;84;21205;-56
2022/08/08 06:44:32;;;;;;;5.95;3.77;;;;;;;38.22;28.04;100398.80;1699688;83;21540;-56
2022/08/08 06:46:59;;;;;;;5.97;4.45;;;;;;;37.93;28.23;100403.05;1699398;84;20982;-56
2022/08/08 06:49:27;;;;;;;5.12;3.77;;;;;;;37.57;28.58;100404.36;1699661;83;20972;-56
2022/08/08 06:51:54;;;;;;;5.35;3.55;;;;;;;36.91;29.20;100403.47;1699347;83;21003;-57
2022/08/08 06:54:23;;;;;;;6.10;3.62;;;;;;;36.49;30.33;100409.59;1698867;84;21280;-58
2022/08/08 06:56:53;;;;;;;6.55;4.15;;;;;;;36.60;30.40;100405.75;1699595;84;21659;-56
2022/08/08 06:59:21;;;;;;;6.83;4.10;;;;;;;36.85;30.26;100408.97;1699618;83;21034;-64
2022/08/08 07:02:00;;;;;;;6.30;3.92;;;;;;;37.06;29.66;100408.65;1699396;83;21034;-56
2022/08/08 07:04:47;;;;;;;4.22;3.37;;;;;;;37.37;29.96;100401.66;1699036;84;20963;-57
2022/08/08 07:07:17;;;;;;;5.87;3.60;;;;;;;37.55;29.46;100399.87;1657023;83;21103;-58
2022/08/08 07:10:04;;;;;;;5.67;3.70;;;;;;;37.70;29.53;100400.32;1675595;85;21455;-56
2022/08/08 07:12:44;;;;;;;4.47;3.45;;;;;;;37.94;28.95;100401.89;1675112;85;21006;-56
2022/08/08 07:15:14;;;;;;;8.30;4.03;;;;;;;38.07;28.95;100401.10;1668572;84;21129;-57
2022/08/08 07:17:51;;;;;;;8.10;3.70;;;;;;;38.16;28.90;100393.48;1668577;85;21003;-64
2022/08/08 07:20:20;;;;;;;6.37;3.27;;;;;;;38.36;29.05;100396.89;1675767;85;21392;-56
2022/08/08 07:23:13;;;;;;;4.57;3.40;;;;;;;38.65;28.54;100398.06;1668009;85;20954;-57
2022/08/08 07:25:41;;;;;;;6.42;3.10;;;;;;;38.84;27.87;100391.70;1675344;85;21048;-56
2022/08/08 07:28:14;;;;;;;8.10;3.40;;;;;;;38.92;27.65;100398.22;1668562;85;21932;-64
2022/08/08 07:30:42;;;;;;;4.33;2.92;;;;;;;39.11;28.21;100397.26;1675805;85;21888;-57
2022/08/08 07:33:10;;;;;;;5.25;3.00;;;;;;;39.33;27.21;100398.30;1668205;85;21254;-60
2022/08/08 07:35:38;;;;;;;;;;;;;;;39.45;27.62;100395.09;1671120;85;21092;-56
2022/08/08 07:38:06;;;;;;;6.30;3.27;;;;;;;39.88;27.40;100397.02;1675779;85;20123;-58
2022/08/08 07:40:36;;;;;;;6.75;4.47;;;;;;;40.32;26.41;100400.27;1642464;85;21016;-58
2022/08/08 07:43:05;;;;;;;6.90;3.50;;;;;;;40.45;25.88;100393.88;1675781;85;20934;-59
2022/08/08 07:45:33;;;;;;;5.53;3.58;;;;;;;40.54;26.06;100392.19;1668530;85;21680;-56
2022/08/08 07:48:01;;;;;;;7.65;3.50;;;;;;;40.58;26.00;100392.42;1675671;85;21501;-56
2022/08/08 07:50:32;;;;;;;4.42;3.05;;;;;;;40.49;25.98;100393.91;1668320;85;20982;-64
2022/08/08 07:53:00;;;;;;;;;;;;;;;40.44;25.98;100389.59;1678147;85;22045;-62
2022/08/08 07:55:29;;;;;;;3.30;2.72;;;;;;;40.35;25.83;100396.78;1675299;85;20206;-57
2022/08/08 07:58:22;;;;;;;4.45;2.50;;;;;;;40.18;25.63;100390.63;1668657;84;21169;-56
2022/08/08 08:00:51;;;;;;;4.25;2.70;;;;;;;40.00;25.28;100393.78;1667915;85;21085;-56
2022/08/08 08:03:31;;;;;;;5.45;2.65;;;;;;;39.79;25.76;100388.39;1676005;85;21061;-56
2022/08/08 08:05:59;;;;;;;6.08;2.80;;;;;;;39.64;25.84;100392.14;1670820;84;21557;-58
2022/08/08 08:08:38;;;;;;;4.30;2.47;;;;;;;39.62;24.89;100395.22;1694002;83;21424;-58
2022/08/08 08:11:09;;;;;;;4.65;2.20;;;;;;;39.61;23.78;100388.20;1699613;83;21925;-57
2022/08/08 08:13:51;;;;;;;3.92;2.60;;;;;;;39.74;24.05;100388.75;1698738;83;21006;-59
2022/08/08 08:16:28;;;;;;;6.20;2.80;;;;;;;39.79;23.62;100393.84;1699084;83;21410;-62
2022/08/08 08:19:03;;;;;;;5.20;2.50;;;;;;;39.66;23.81;100394.67;1699618;83;21047;-56
2022/08/08 08:21:43;;;;;;;3.60;2.47;;;;;;;39.68;24.34;100400.35;1699130;83;21075;-57
2022/08/08 08:24:12;;;;;;;5.12;2.10;;;;;;;39.64;23.61;100395.64;1699155;82;21187;-57
2022/08/08 08:26:39;;;;;;;4.22;2.33;;;;;;;39.49;23.68;100389.86;1699533;84;21488;-56
2022/08/08 08:29:07;;;;;;;4.33;2.15;;;;;;;39.41;23.93;100394.47;1699046;84;20995;-57
2022/08/08 08:31:35;;;;;;;3.52;2.20;;;;;;;39.51;23.55;100398.44;1699463;83;21326;-56
2022/08/08 08:34:02;;;;;;;4.67;2.35;;;;;;;39.48;23.25;100391.03;1698956;83;21053;-62
2022/08/08 08:36:29;;;;;;;4.12;2.12;;;;;;;39.58;22.90;100393.63;1699442;84;21239;-56
2022/08/08 08:38:57;;;;;;;3.40;1.87;;;;;;;39.71;23.36;100390.08;1699029;84;21138;-59
2022/08/08 08:41:26;;;;;;;4.72;1.90;;;;;;;39.62;22.74;100391.72;1699403;83;20975;-56
2022/08/08 08:43:53;;;;;;;3.35;2.02;;;;;;;39.50;22.79;100387.91;1699235;84;21063;-62
2022/08/08 08:46:21;;;;;;;3.72;2.15;;;;;;;39.37;22.89;100392.30;1699500;83;21036;-55
2022/08/08 08:48:48;;;;;;;3.80;2.05;;;;;;;39.41;22.78;100394.47;1699683;83;21820;-57
2022/08/08 08:51:15;;;;;;;3.98;2.55;;;;;;;39.44;22.26;100389.41;1698534;83;21499;-56
2022/08/08 08:53:52;;;;;;;5.40;2.35;;;;;;;39.52;23.18;100385.02;1699583;83;21464;-62
2022/08/08 08:56:23;;;;;;;4.58;2.52;;;;;;;39.88;22.58;100383.95;1698930;83;21466;-56
2022/08/08 08:58:51;;;;;;;3.33;2.00;;;;;;;40.29;22.90;100388.73;1699405;84;21050;-63
2022/08/08 09:01:23;;;;;;;4.25;2.10;;;;;;;40.79;22.22;100383.51;1699160;83;21079;-59
2022/08/08 09:03:51;;;;;;;3.77;2.00;;;;;;;41.11;21.29;100388.88;1698925;84;21409;-61
2022/08/08 09:06:28;;;;;;;3.65;1.95;;;;;;;41.15;21.47;100381.50;1696876;83;21113;-56
2022/08/08 09:09:06;;;;;;;4.58;1.72;;;;;;;41.23;21.47;100387.95;1622044;85;21531;-56
2022/08/08 09:11:34;;;;;;;6.70;2.52;;;;;;;41.11;21.42;100381.48;1675375;84;20993;-64
2022/08/08 09:14:01;;;;;;;4.50;2.20;;;;;;;40.99;21.10;100385.38;1668527;85;22287;-56
2022/08/08 09:16:30;;;;;;;3.22;1.92;;;;;;;40.53;20.42;100385.14;1643334;85;21574;-57
2022/08/08 09:18:58;;;;;;;4.25;1.70;;;;;;;40.13;20.89;100382.21;1675490;84;21004;-56
2022/08/08 09:21:26;;;;;;;4.45;1.87;;;;;;;40.40;20.68;100383.92;1668666;85;21040;-64
2022/08/08 09:23:54;;;;;;;2.55;1.72;;;;;;;40.70;20.19;100381.73;1675569;85;21062;-57
2022/08/08 09:26:39;;;;;;;4.28;1.75;;;;;;;40.79;19.81;100387.61;1669000;85;21874;-57
2022/08/08 09:29:07;;;;;;;3.52;1.70;;;;;;;40.58;19.61;100383.45;1647751;85;21073;-57
2022/08/08 09:31:45;;;;;;;4.05;1.70;;;;;;;40.29;19.26;100381.91;1667948;85;20951;-56
2022/08/08 09:34:12;;;;;;;4.58;1.80;;;;;;;40.28;20.04;100376.25;1666522;85;22391;-65
2022/08/08 09:36:41;;;;;;;2.60;1.50;;;;;;;40.43;19.35;100375.74;1675291;85;21455;-58
2022/08/08 09:39:08;;;;;;;4.60;1.80;;;;;;;40.30;19.66;100378.59;1668042;85;22188;-60
2022/08/08 09:41:40;;;;;;;4.37;1.80;;;;;;;40.29;19.77;100373.71;1668786;85;21065;-57
2022/08/08 09:44:22;;;;;;;3.95;2.00;;;;;;;40.08;20.04;100374.36;1668149;85;21005;-58
2022/08/08 09:46:50;;;;;;;2.52;1.42;;;;;;;39.95;20.61;100374.45;1674096;85;20999;-57
2022/08/08 09:49:17;;;;;;;3.00;1.37;;;;;;;39.86;21.05;100376.16;1668946;85;21876;-56
2022/08/08 09:51:54;;;;;;;4.50;1.60;;;;;;;39.83;19.99;100375.55;1668439;85;21159;-60
2022/08/08 09:54:26;;;;;;;5.03;1.57;;;;;;;39.64;18.93;100378.49;1668639;85;21528;-65
2022/08/08 09:56:54;;;;;;;2.67;1.50;;;;;;;39.05;19.75;100371.48;1675863;85;20982;-58
2022/08/08 09:59:25;;;;;;;5.15;1.60;;;;;;;38.53;19.68;100382.74;1675829;84;20942;-56
2022/08/08 10:01:52;;;;;;;3.12;1.65;;;;;;;38.17;19.36;100373.27;1667987;85;20994;-58
2022/08/08 10:04:23;;;;;;;3.80;1.72;;;;;;;38.08;20.05;100372.17;1668586;85;21197;-65
2022/08/08 10:06:52;;;;;;;6.28;1.82;;;;;;;38.25;20.15;100371.42;1668861;83;21026;-56
2022/08/08 10:09:32;;;;;;;3.12;1.40;;;;;;;38.39;20.29;100371.08;1675736;85;20995;-56
2022/08/08 10:12:02;;;;;;;2.60;1.70;;;;;;;38.44;20.07;100374.05;1669375;84;21057;-56
2022/08/08 10:14:34;;;;;;;3.12;1.57;;;;;;;38.41;19.66;100370.11;1675633;85;20985;-56
2022/08/08 10:17:08;;;;;;;3.72;1.50;;;;;;;38.50;20.40;100375.88;1675348;85;21266;-64
2022/08/08 10:19:39;;;;;;;4.90;1.92;;;;;;;38.70;19.72;100365.81;1668411;85;21077;-56
2022/08/08 10:22:07;;;;;;;3.90;1.57;;;;;;;38.84;20.25;100367.95;1668344;85;21054;-57
2022/08/08 10:24:35;;;;;;;3.70;1.25;;;;;;;38.79;19.58;100371.55;1675704;85;21013;-56
2022/08/08 10:27:06;;;;;;;4.03;1.60;;;;;;;38.65;19.82;100366.73;1668473;84;21022;-57
2022/08/08 10:30:01;;;;;;;4.08;1.52;;;;;;;38.61;20.59;100367.27;1675681;85;21136;-57
2022/08/08 10:32:35;;;;;;;2.27;1.30;;;;;;;38.57;20.70;100366.45;1668033;85;21082;-64
2022/08/08 10:35:07;;;;;;;4.22;1.80;;;;;;;38.88;20.70;100362.55;1675564;85;21513;-57
2022/08/08 10:37:34;;;;;;;2.75;1.80;;;;;;;39.12;18.86;100359.88;1643974;85;21428;-57
2022/08/08 10:40:12;;;;;;;3.90;1.80;;;;;;;39.15;18.66;100361.27;1668634;85;21080;-57
2022/08/08 10:42:40;;;;;;;7.92;2.77;;;;;;;39.00;18.12;100360.92;1668827;85;21200;-58
2022/08/08 10:45:09;;;;;;;5.70;3.60;;;;;;;38.77;18.05;100360.25;1668968;85;20946;-57
2022/08/08 10:47:37;;;;;;;8.73;3.75;;;;;;;38.62;17.79;100357.94;1668103;85;20997;-57
2022/08/08 10:50:06;;;;;;;5.00;3.45;;;;;;;38.59;18.18;100357.31;1674900;85;22426;-57
2022/08/08 10:52:38;;;;;;;4.55;2.72;;;;;;;38.77;17.70;100359.67;1675735;85;20989;-57
2022/08/08 10:55:12;;;;;;;3.42;2.42;;;;;;;38.94;17.91;100359.09;1668711;85;21249;-57
2022/08/08 10:57:41;;;;;;;4.70;2.50;;;;;;;39.07;18.40;100350.68;1650151;85;20935;-57
2022/08/08 11:00:11;;;;;;;3.30;2.22;;;;;;;39.33;17.74;100345.70;1668832;85;21896;-56
2022/08/08 11:02:38;;;;;;;4.30;1.90;;;;;;;39.44;17.48;100344.41;1669030;85;20979;-57
2022/08/08 11:05:12;;;;;;;3.33;2.08;;;;;;;39.25;17.48;100345.41;1675860;85;21056;-57
2022/08/08 11:07:44;;;;;;;4.03;2.33;;;;;;;38.93;17.62;100354.03;1677076;84;21273;-60
2022/08/08 11:10:14;;;;;;;4.85;2.40;;;;;;;38.45;18.41;100354.63;1694251;83;20998;-57
2022/08/08 11:12:54;;;;;;;4.80;2.12;;;;;;;38.15;18.08;100349.14;1694432;84;21019;-57
2022/08/08 11:15:23;;;;;;;3.77;2.33;;;;;;;38.13;18.24;100350.66;1693546;84;21509;-65
2022/08/08 11:17:51;;;;;;;4.35;2.55;;;;;;;38.24;18.51;100346.14;1699919;84;21587;-56
2022/08/08 11:20:25;;;;;;;3.27;2.10;;;;;;;38.39;18.40;100350.66;1700007;83;21068;-57
2022/08/08 11:22:57;;;;;;;4.08;2.05;;;;;;;38.61;18.22;100344.12;1700142;84;20876;-57
2022/08/08 11:25:27;;;;;;;3.22;1.90;;;;;;;38.83;19.15;100343.23;1699762;84;21071;-56
2022/08/08 11:27:55;;;;;;;3.87;1.90;;;;;;;39.02;20.25;100340.09;1700634;83;21446;-56
2022/08/08 11:30:24;;;;;;;2.75;1.50;;;;;;;39.18;21.13;100337.94;1700367;83;20987;-56
2022/08/08 11:32:57;;;;;;;2.92;1.75;;;;;;;39.38;20.02;100334.44;1700228;83;21121;-56
2022/08/08 11:35:24;;;;;;;4.08;1.77;;;;;;;39.48;19.65;100326.15;1700269;83;21090;-57
2022/08/08 11:37:52;;;;;;;2.55;1.52;;;;;;;39.58;19.10;100333.02;1700559;84;21532;-56
2022/08/08 11:40:19;;;;;;;4.00;1.80;;;;;;;39.52;19.32;100335.92;1700154;84;20948;-57
2022/08/08 11:42:46;;;;;;;6.28;1.98;;;;;;;39.35;19.23;100342.78;1700234;83;21069;-56
2022/08/08 11:45:14;;;;;;;3.10;1.75;;;;;;;39.07;18.42;100337.83;1698862;84;21827;-58
2022/08/08 11:47:41;;;;;;;3.75;1.87;;;;;;;38.57;18.53;100346.02;1699981;83;21293;-56
2022/08/08 11:50:13;;;;;;;5.00;1.85;;;;;;;38.01;19.19;100344.07;1699669;83;20965;-57
2022/08/08 11:52:40;;;;;;;4.95;2.40;;;;;;;37.57;19.25;100340.44;1700164;84;21024;-56
2022/08/08 11:55:21;;;;;;;3.33;2.35;;;;;;;37.28;20.08;100337.23;1699172;83;20947;-64
2022/08/08 11:57:49;;;;;;;3.85;2.90;;;;;;;37.07;20.07;100342.27;1700005;84;21828;-56
2022/08/08 12:00:17;;;;;;;5.47;3.02;;;;;;;36.81;20.44;100345.63;1680034;84;20999;-56
2022/08/08 12:02:48;;;;;;;4.58;2.75;;;;;;;36.54;20.80;100341.41;1700381;83;21014;-57
2022/08/08 12:05:16;;;;;;;3.70;2.55;;;;;;;36.36;21.37;100345.64;1698874;84;21056;-57
2022/08/08 12:07:52;;;;;;;4.95;2.98;;;;;;;36.12;21.73;100352.11;1700203;84;21416;-56